Weerspreuk van de dag: Als in januari de muggen zwermen,dan kun je in maart de oren wermen.
Het weer levert geen direct gevaar op.    Er zijn geen waarschuwingen afgegeven.


Onweer radar Meer informatie blitzortung!


Regen radar Meer informatie rain snow radar


Bekijk deze sites ook eens:

FPL Automotive (TIP)

Autostekkers.nl (TIP)

Over Luyksgestel

De Kempen, mijn omgeving

BOL.com

Weerstation Noordbergum

Inktweb

Weerstation Hapert

Parfumswinkel TIP

Weerstation Hoogeloon

Weerstation Son&Breugel

Weerstation Castaert

Smartphonehoesjes

Weerstation Tilburg Reeshof

Weerstation Scheulder

Weerverwachting Samos

Samos actueel

Weerwoord (forum)

Griekenlandforum

Vakantie naar Samos

Winterzon

Canon

Lampen koopjeshoek

Wolven in Nederland



METAR rapporten vliegvelden

   
EBAW - Antwerp
Gewijzigd: 21-01-2019 03:50
Helder  
Helder  
   Wind: Kalm
Wind: Kalm
Temperatuur: -6°C
Dauwpunt: -7°C
Vochtigheid: 93%
Barometer: 1023 hPa
Zicht: meer dan 10 km
Bewolking: Helder
EBAW 210250Z AUTO 00000KT CAVOK M06/M07 Q1023
EBLG - Liège
Gewijzigd: 21-01-2019 03:50
Gedeeltelijk bewolkt  
Gedeeltelijk bewolkt  
   Wind: Kalm
Wind: Kalm
Temperatuur: -5°C
Dauwpunt: -7°C
Vochtigheid: 86%
Barometer: 1022 hPa
Bewolking: Gedeeltelijk bewolkt
Zicht: 7 km
Bewolking: Gedeeltelijk bewolkt
EBLG 210250Z 00000KT 7000 NSC M05/M07 Q1022 BECMG 3000 BR
EBCV - Mons/Bergen
Gewijzigd: 21-01-2019 03:25
Helder  
Helder  
   Wind: varieert 3.7 km/h
Wind: varieert 3.7 km/h
Temperatuur: -4°C
Dauwpunt: -6°C
Vochtigheid: 86%
Barometer: 1023 hPa
Bewolking: Helder
Zicht: 8 km
Bewolking: Helder
EBCV 210225Z AUTO VRB02KT 8000 NCD M04/M06 Q1023 BLU
EHBK - Maastricht
Gewijzigd: 21-01-2019 03:55
Helder  
Helder  
   Wind: varieert 1.9 km/h
Wind: varieert 1.9 km/h
Temperatuur: -6°C
Dauwpunt: -7°C
Vochtigheid: 93%
Barometer: 1022 hPa
Bewolking: Helder
Zicht: 6 km
Bewolking: Helder
EHBK 210255Z AUTO VRB01KT 6000 NCD M06/M07 Q1022
ELLX - Luxemburg
Gewijzigd: 21-01-2019 03:50
Helder  
Helder  
   Wind: NNO 14.8 km/h
Wind: NNO 14.8 km/h
Temperatuur: -5°C
Voelt als: -11°C
Dauwpunt: -8°C
Vochtigheid: 80%
Barometer: 1019 hPa
Zicht: meer dan 10 km
Bewolking: Helder
ELLX 210250Z 03008KT CAVOK M05/M08 Q1019 NOSIG
EBOS - Oostende
Gewijzigd: 21-01-2019 03:50
Helder  
Helder  
   Wind: ZZO 5.6 km/h
Wind: ZZO 5.6 km/h
Temperatuur: -6°C
Voelt als: -9°C
Dauwpunt: -8°C
Vochtigheid: 86%
Barometer: 1023 hPa
Zicht: meer dan 10 km
Bewolking: Helder
EBOS 210250Z 15003KT CAVOK M06/M08 Q1023 NOSIG

Script ontwikkeld door  Saratoga-weather.org Aangepast voor de template door  Weerstation Leuven

U vindt ons ook hier:

Het Weer Aktueel

UK Metoffice

European Weather Network

Weather Underground

AWEKAS



Lekker winkelen zonder zorgen - Gratis verzending en retour